Christian Sabionski

Accountable Manager AM

Head of Training HT

Kapitän ATPL (A)         

Fluglehrer FI (A) für PPL, CPL,

 IR, MCCI und FI

Prüfer CRE (A) SEP (Land) 

Werkstattmeister

 

 

 

 

 

 

 

 

Marc Kanitz

Marc Kanitz

Berufspilot CPL (A) / ATPL (A)

Fluglehrer FI (A) für PPL

CRI SEP & TMG,  Cessna SET,  ACRO

Fluglotse

 

 

 

 

 

Dr. Silke Sabionski

Silke

Compliance Monitoring +

Safety Manager

PPL (A)

Theorie Lehrerin

Ärztin

 

 

 

 

 

 

 

Dietrich Mohr                   

Beauftragter für Technik BfT

Fluglehrer PPL & SIM

Co Pilot CPL (A) / ATPL (A)

Ingenieur Luft & Raumfahrt

 

 

 

 

 

 

Dr. Winthir Brunnbauer

Fluglehrer FI IR

Language Examiner

Kapitän ATPL (A) 

Winni.png - 7.54 MB

                                               

Flugwetter Augsburg

[source: ADDS]
METAR
EDMA 280420Z AUTO 08004KT 050V120 4300 // OVC002/// M02/M02 Q1019 =
TAF EDMA 271700Z 2718/2803 07004KT 0800 FZFG VV002 BECMG 2718/2721 0400 FZFG VV001
TAF
TAF EDMA 271700Z 2718/2803 07004KT 0800 FZFG VV002 BECMG 2718/2721 0400 FZFG VV001 =
Cookies erleichtern die Bereitstellung unserer Dienste. Mit der Nutzung unserer Dienste erklären Sie sich damit einverstanden, dass wir Cookies verwenden.
Weitere Informationen Ok